createdAt,value
2023-04-28T00:01:23.029Z,47.00
2023-04-28T00:03:24.907Z,46.90
2023-04-28T00:05:26.880Z,46.90
2023-04-28T00:07:28.669Z,47.00
2023-04-28T00:09:30.480Z,46.90
2023-04-28T00:11:32.232Z,47.10
2023-04-28T00:13:34.017Z,47.10
2023-04-28T00:15:35.716Z,46.90
2023-04-28T00:17:37.523Z,46.90
2023-04-28T00:19:39.324Z,46.90
2023-04-28T00:21:41.061Z,47.10
2023-04-28T00:23:42.771Z,47.00
2023-04-28T00:25:44.561Z,46.90
2023-04-28T00:27:46.276Z,46.90
2023-04-28T00:29:48.045Z,47.00
2023-04-28T00:31:49.885Z,47.00
2023-04-28T00:33:51.714Z,47.00
2023-04-28T00:36:00.157Z,47.00
2023-04-28T00:38:01.964Z,47.10
2023-04-28T00:40:03.888Z,47.10
2023-04-28T00:42:05.665Z,47.00
2023-04-28T00:44:07.424Z,47.00
2023-04-28T00:46:09.208Z,47.00
2023-04-28T00:48:11.015Z,47.10
2023-04-28T00:50:14.316Z,47.10
2023-04-28T00:52:16.101Z,47.00
2023-04-28T00:54:18.224Z,47.10
2023-04-28T00:56:20.345Z,47.10
2023-04-28T00:58:22.310Z,47.10
2023-04-28T01:00:24.836Z,47.10
2023-04-28T01:02:27.145Z,47.00
2023-04-28T01:04:29.682Z,47.00
2023-04-28T01:06:31.950Z,47.10
2023-04-28T01:08:36.931Z,47.00
2023-04-28T01:10:43.737Z,47.00
2023-04-28T01:12:50.750Z,47.00
2023-04-28T01:14:52.660Z,47.10
2023-04-28T01:16:54.796Z,47.00
2023-04-28T01:18:56.700Z,47.00
2023-04-28T01:20:58.513Z,47.10
2023-04-28T01:23:00.305Z,47.10
2023-04-28T01:25:02.180Z,47.10
2023-04-28T01:27:04.486Z,47.20
2023-04-28T01:29:06.411Z,47.10
2023-04-28T01:31:08.272Z,47.20
2023-04-28T01:33:10.128Z,47.10
2023-04-28T01:35:11.891Z,47.10
2023-04-28T01:37:13.651Z,47.20
2023-04-28T01:39:15.430Z,47.20
2023-04-28T01:41:17.193Z,47.20
2023-04-28T01:43:19.114Z,47.20
2023-04-28T01:45:20.890Z,47.20
2023-04-28T01:47:22.689Z,47.20
2023-04-28T01:49:24.432Z,47.20
2023-04-28T01:51:26.204Z,47.20
2023-04-28T01:53:28.283Z,47.20
2023-04-28T01:55:30.047Z,47.20
2023-04-28T01:57:32.448Z,47.10
2023-04-28T01:59:34.225Z,47.20
2023-04-28T02:01:36.423Z,47.20
2023-04-28T02:03:38.517Z,47.20
2023-04-28T02:05:40.350Z,47.20
2023-04-28T02:07:42.118Z,47.20
2023-04-28T02:09:43.880Z,47.20
2023-04-28T02:11:45.710Z,47.20
2023-04-28T02:13:47.449Z,47.20
2023-04-28T02:15:49.359Z,47.20
2023-04-28T02:17:51.134Z,47.20
2023-04-28T02:19:56.029Z,47.30
2023-04-28T02:21:57.778Z,47.20
2023-04-28T02:23:59.531Z,47.20
2023-04-28T02:26:01.735Z,47.20
2023-04-28T02:28:03.725Z,47.30
2023-04-28T02:30:06.018Z,47.60
2023-04-28T02:32:08.023Z,47.60
2023-04-28T02:34:09.794Z,47.70
2023-04-28T02:36:11.548Z,47.80
2023-04-28T02:38:13.271Z,47.90
2023-04-28T02:40:15.131Z,47.70
2023-04-28T02:42:16.899Z,47.60
2023-04-28T02:44:18.907Z,47.20
2023-04-28T02:46:20.749Z,47.00
2023-04-28T02:48:24.486Z,47.00
2023-04-28T02:50:26.216Z,46.90
2023-04-28T02:52:28.277Z,46.80
2023-04-28T02:54:30.023Z,47.00
2023-04-28T02:56:33.273Z,47.00
2023-04-28T02:58:35.790Z,47.20
2023-04-28T03:00:37.610Z,47.10
2023-04-28T03:02:39.410Z,47.10
2023-04-28T03:04:41.461Z,47.00
2023-04-28T03:06:43.494Z,46.90
2023-04-28T03:08:45.289Z,46.90
2023-04-28T03:10:47.158Z,47.00
2023-04-28T03:12:48.938Z,46.90
2023-04-28T03:14:50.661Z,46.90
2023-04-28T03:16:52.560Z,46.90
2023-04-28T03:18:54.311Z,46.90
2023-04-28T03:20:56.069Z,46.90
2023-04-28T03:22:57.828Z,47.00
2023-04-28T03:24:59.768Z,47.10
2023-04-28T03:27:02.869Z,47.10
2023-04-28T03:29:05.039Z,47.10
2023-04-28T03:31:07.101Z,47.20
2023-04-28T03:33:08.914Z,47.20
2023-04-28T03:35:10.705Z,47.20
2023-04-28T03:37:14.042Z,47.10
2023-04-28T03:39:15.991Z,47.20
2023-04-28T03:41:17.831Z,47.30
2023-04-28T03:43:19.581Z,47.30
2023-04-28T03:45:40.878Z,47.20
2023-04-28T03:47:43.460Z,47.30
2023-04-28T03:49:45.330Z,47.20
2023-04-28T03:51:47.091Z,47.20
2023-04-28T03:53:49.657Z,47.30
2023-04-28T03:55:51.386Z,47.20
2023-04-28T03:57:53.848Z,47.90
2023-04-28T03:59:55.613Z,47.30
2023-04-28T04:01:57.528Z,47.30
2023-04-28T04:03:59.692Z,47.30
2023-04-28T04:06:01.907Z,47.50
2023-04-28T04:08:03.743Z,47.50
2023-04-28T04:10:06.286Z,47.30
2023-04-28T04:12:09.878Z,47.40
2023-04-28T04:14:12.014Z,47.40
2023-04-28T04:16:14.374Z,47.50
2023-04-28T04:18:16.267Z,47.60
2023-04-28T04:20:43.832Z,47.50
2023-04-28T04:22:45.646Z,47.50
2023-04-28T04:24:48.137Z,47.40
2023-04-28T04:26:49.952Z,47.40
2023-04-28T04:29:03.278Z,47.50
2023-04-28T04:31:07.209Z,47.40
2023-04-28T04:33:09.143Z,47.50
2023-04-28T04:35:11.182Z,47.50
2023-04-28T04:37:12.930Z,47.50
2023-04-28T04:39:29.656Z,47.50
2023-04-28T04:41:31.386Z,47.50
2023-04-28T04:43:49.281Z,47.40
2023-04-28T04:45:51.240Z,47.60
2023-04-28T04:47:53.395Z,47.50
2023-04-28T04:49:55.236Z,47.50
2023-04-28T04:51:57.752Z,47.60
2023-04-28T04:53:59.681Z,47.60
2023-04-28T04:56:01.572Z,47.70
2023-04-28T04:58:03.858Z,47.60
2023-04-28T05:00:21.106Z,47.70
2023-04-28T05:02:23.257Z,47.60
2023-04-28T05:04:25.665Z,47.60
2023-04-28T05:06:27.651Z,48.20
2023-04-28T05:08:29.616Z,47.50
2023-04-28T05:10:32.510Z,47.60
2023-04-28T05:12:35.197Z,47.70
2023-04-28T05:14:36.966Z,47.80
2023-04-28T05:16:39.024Z,47.70
2023-04-28T05:18:51.075Z,47.70
2023-04-28T05:20:52.882Z,47.80
2023-04-28T05:22:54.666Z,47.70
2023-04-28T05:24:56.489Z,47.80
2023-04-28T05:26:58.663Z,47.80
2023-04-28T05:29:00.459Z,47.90
2023-04-28T05:31:02.491Z,47.90
2023-04-28T05:33:05.598Z,47.80
2023-04-28T05:35:07.665Z,47.80
2023-04-28T05:37:09.533Z,47.80
2023-04-28T05:39:13.635Z,48.30
2023-04-28T05:41:16.677Z,47.80
2023-04-28T05:43:19.081Z,47.90
2023-04-28T05:45:20.977Z,47.90
2023-04-28T05:47:22.830Z,47.90
2023-04-28T05:49:25.343Z,47.90
2023-04-28T05:51:27.073Z,47.90
2023-04-28T05:53:28.867Z,48.00
2023-04-28T05:55:30.717Z,48.00
2023-04-28T05:57:41.767Z,48.00
2023-04-28T05:59:51.939Z,48.00
2023-04-28T06:01:53.900Z,48.00
2023-04-28T06:03:55.843Z,48.00
2023-04-28T06:05:57.899Z,48.00
2023-04-28T06:08:00.293Z,48.00
2023-04-28T06:10:02.121Z,48.00
2023-04-28T06:12:04.042Z,48.00
2023-04-28T06:14:05.887Z,48.10
2023-04-28T06:16:07.922Z,48.20
2023-04-28T06:18:09.938Z,48.20
2023-04-28T06:20:12.177Z,48.20
2023-04-28T06:22:13.973Z,48.10
2023-04-28T06:24:15.976Z,48.10
2023-04-28T06:26:20.537Z,48.20
2023-04-28T06:28:22.310Z,48.10
2023-04-28T06:30:24.373Z,48.10
2023-04-28T06:32:26.185Z,48.20
2023-04-28T06:34:27.962Z,48.10
2023-04-28T06:36:29.695Z,48.10
2023-04-28T06:38:31.515Z,48.10
2023-04-28T06:40:33.310Z,48.10
2023-04-28T06:42:36.728Z,48.10
2023-04-28T06:44:45.955Z,48.10
2023-04-28T06:46:47.879Z,48.10
2023-04-28T06:48:49.742Z,48.00
2023-04-28T06:50:52.084Z,48.00
2023-04-28T06:52:53.801Z,47.90
2023-04-28T06:54:56.285Z,48.00
2023-04-28T06:56:59.208Z,48.20
2023-04-28T06:59:00.975Z,48.20
2023-04-28T07:01:02.786Z,48.10
2023-04-28T07:03:05.157Z,48.20
2023-04-28T07:05:07.133Z,48.20
2023-04-28T07:07:08.912Z,48.40
2023-04-28T07:09:10.798Z,48.30
2023-04-28T07:11:12.601Z,48.50
2023-04-28T07:13:14.364Z,48.60
2023-04-28T07:15:16.138Z,48.70
2023-04-28T07:17:17.869Z,48.70
2023-04-28T07:19:19.702Z,48.60
2023-04-28T07:21:21.445Z,48.70
2023-04-28T07:23:23.526Z,48.80
2023-04-28T07:25:25.376Z,48.70
2023-04-28T07:27:27.197Z,48.60
2023-04-28T07:29:29.170Z,48.70
2023-04-28T07:31:31.072Z,48.90
2023-04-28T07:33:32.952Z,48.80
2023-04-28T07:35:34.775Z,48.80
2023-04-28T07:37:37.154Z,48.90
2023-04-28T07:39:39.026Z,48.90
2023-04-28T07:41:40.743Z,48.80
2023-04-28T07:43:42.621Z,48.80
2023-04-28T07:45:44.413Z,48.90
2023-04-28T07:47:46.300Z,49.80
2023-04-28T07:49:48.090Z,50.00
2023-04-28T07:51:49.977Z,50.50
2023-04-28T07:53:51.704Z,51.20
2023-04-28T07:55:54.611Z,52.40
2023-04-28T07:57:56.384Z,51.50
2023-04-28T07:59:58.176Z,51.50
2023-04-28T08:01:59.912Z,51.20
2023-04-28T08:04:01.984Z,51.60
2023-04-28T08:06:03.998Z,51.20
2023-04-28T08:08:06.117Z,51.10
2023-04-28T08:10:08.665Z,51.10
2023-04-28T08:12:10.407Z,51.20
2023-04-28T08:14:12.367Z,51.30
2023-04-28T08:16:14.794Z,51.50
2023-04-28T08:18:16.674Z,51.30
2023-04-28T08:20:18.434Z,51.40
2023-04-28T08:22:20.182Z,51.30
2023-04-28T08:24:22.085Z,51.30
2023-04-28T08:26:24.803Z,51.20
2023-04-28T08:28:27.289Z,51.20
2023-04-28T08:30:29.236Z,51.20
2023-04-28T08:32:31.141Z,51.20
2023-04-28T08:34:33.352Z,51.20
2023-04-28T08:36:35.127Z,51.80
2023-04-28T08:38:36.853Z,51.10
2023-04-28T08:40:38.673Z,51.20
2023-04-28T08:42:41.099Z,51.10
2023-04-28T08:44:42.870Z,51.20
2023-04-28T08:46:45.180Z,51.20
2023-04-28T08:48:49.073Z,51.00
2023-04-28T08:50:51.974Z,51.60
2023-04-28T08:52:55.246Z,52.20
2023-04-28T08:54:58.882Z,52.10
2023-04-28T08:57:01.117Z,52.40
2023-04-28T08:59:03.377Z,52.10
2023-04-28T09:01:05.494Z,52.10
2023-04-28T09:03:07.414Z,52.10
2023-04-28T09:05:10.533Z,52.10
2023-04-28T09:07:12.502Z,52.20
2023-04-28T09:09:20.229Z,52.00
2023-04-28T09:11:22.055Z,52.50
2023-04-28T09:13:26.457Z,52.50
2023-04-28T09:15:38.410Z,52.50
2023-04-28T09:17:50.498Z,52.70
2023-04-28T09:19:52.287Z,53.10
2023-04-28T09:21:55.455Z,53.70
2023-04-28T09:23:57.269Z,53.10
2023-04-28T09:26:06.089Z,53.30
2023-04-28T09:28:20.838Z,53.00
2023-04-28T09:30:38.274Z,52.80
2023-04-28T09:32:40.152Z,53.10
2023-04-28T09:34:45.806Z,53.20
2023-04-28T09:36:47.784Z,53.70
2023-04-28T09:38:49.677Z,54.10
2023-04-28T09:40:51.491Z,54.70
2023-04-28T09:42:53.294Z,55.10
2023-04-28T09:44:55.026Z,55.40
2023-04-28T09:46:56.829Z,55.30
2023-04-28T09:49:01.199Z,56.00
2023-04-28T09:51:04.434Z,55.50
2023-04-28T09:53:06.287Z,55.80
2023-04-28T09:55:08.358Z,56.60
2023-04-28T09:57:10.678Z,56.30
2023-04-28T09:59:13.237Z,55.70
2023-04-28T10:01:15.103Z,55.40
2023-04-28T10:03:17.155Z,55.60
2023-04-28T10:05:19.372Z,55.50
2023-04-28T10:07:21.698Z,55.50
2023-04-28T10:09:24.826Z,55.30
2023-04-28T10:11:27.100Z,55.20
2023-04-28T10:13:29.050Z,56.20
2023-04-28T10:15:32.191Z,55.40
2023-04-28T10:17:34.703Z,55.50
2023-04-28T10:19:37.070Z,55.40
2023-04-28T10:21:43.854Z,55.50
2023-04-28T10:24:04.117Z,55.60
2023-04-28T10:26:10.943Z,55.20
2023-04-28T10:28:12.861Z,55.40
2023-04-28T10:32:24.467Z,55.60
2023-04-28T10:34:26.279Z,55.60
2023-04-28T10:36:46.474Z,55.60
2023-04-28T10:39:06.682Z,55.30
2023-04-28T10:41:28.415Z,55.90
2023-04-28T10:43:30.308Z,55.80
2023-04-28T10:45:55.254Z,55.60
2023-04-28T10:48:00.767Z,55.70
2023-04-28T10:50:06.981Z,55.70
2023-04-28T10:52:27.624Z,55.70
2023-04-28T10:54:29.424Z,55.60
2023-04-28T10:56:31.241Z,56.20
2023-04-28T10:58:33.330Z,55.50
2023-04-28T11:00:35.170Z,55.60
2023-04-28T11:02:38.529Z,55.60
2023-04-28T11:05:01.507Z,55.50
2023-04-28T11:07:10.135Z,55.50
2023-04-28T11:09:15.101Z,55.60
2023-04-28T11:11:18.186Z,55.50
2023-04-28T11:13:29.668Z,55.60
2023-04-28T11:15:31.784Z,55.60
2023-04-28T11:17:39.595Z,55.60
2023-04-28T11:19:44.773Z,55.40
2023-04-28T11:21:46.935Z,55.70
2023-04-28T11:23:49.155Z,55.30
2023-04-28T11:25:54.218Z,55.60
2023-04-28T11:28:03.070Z,55.30
2023-04-28T11:30:19.279Z,55.30
2023-04-28T11:32:28.268Z,55.10
2023-04-28T11:34:30.085Z,55.20
2023-04-28T11:36:36.201Z,55.30
2023-04-28T11:38:44.637Z,55.30
2023-04-28T11:40:56.548Z,55.30
2023-04-28T11:42:59.067Z,55.10
2023-04-28T11:45:01.920Z,55.20
2023-04-28T11:47:04.372Z,55.20
2023-04-28T11:49:06.725Z,55.10
2023-04-28T11:51:08.475Z,55.30
2023-04-28T11:53:10.242Z,56.10
2023-04-28T11:55:16.225Z,55.40
2023-04-28T11:57:18.816Z,56.60
2023-04-28T11:59:27.724Z,56.10
2023-04-28T12:01:29.858Z,56.10
2023-04-28T12:03:31.755Z,56.00
2023-04-28T12:05:33.801Z,56.10
2023-04-28T12:07:44.603Z,56.30
2023-04-28T12:09:47.879Z,56.60
2023-04-28T12:11:56.580Z,56.80
2023-04-28T12:14:05.249Z,57.50
2023-04-28T12:16:07.811Z,57.30
2023-04-28T12:18:10.364Z,57.40
2023-04-28T12:20:30.176Z,57.70
2023-04-28T12:22:42.940Z,58.50
2023-04-28T12:24:44.709Z,58.10
2023-04-28T12:26:46.913Z,58.30
2023-04-28T12:28:48.666Z,58.30
2023-04-28T12:30:50.521Z,58.10
2023-04-28T12:32:52.296Z,57.70
2023-04-28T12:34:54.134Z,57.90
2023-04-28T12:36:55.894Z,57.80
2023-04-28T12:38:57.827Z,57.70
2023-04-28T12:40:59.797Z,57.60
2023-04-28T12:43:01.704Z,57.80
2023-04-28T12:45:03.708Z,57.90
2023-04-28T12:47:09.028Z,57.90
2023-04-28T12:49:10.847Z,57.60
2023-04-28T12:51:12.589Z,57.60
2023-04-28T12:53:14.338Z,57.70
2023-04-28T12:55:16.247Z,57.50
2023-04-28T12:57:18.724Z,57.70
2023-04-28T12:59:21.060Z,57.80
2023-04-28T13:01:23.016Z,57.80
2023-04-28T13:03:25.073Z,57.70
2023-04-28T13:05:26.850Z,58.00
2023-04-28T13:07:28.784Z,58.00
2023-04-28T13:09:30.577Z,57.90
2023-04-28T13:11:32.455Z,58.00
2023-04-28T13:13:34.272Z,58.20
2023-04-28T13:15:38.518Z,58.60
2023-04-28T13:17:40.599Z,58.40
2023-04-28T13:19:42.759Z,58.30
2023-04-28T13:21:44.666Z,58.40
2023-04-28T13:23:46.487Z,58.80
2023-04-28T13:25:48.233Z,58.30
2023-04-28T13:27:50.051Z,58.80
2023-04-28T13:29:51.750Z,58.30
2023-04-28T13:31:53.688Z,58.80
2023-04-28T13:33:55.618Z,59.00
2023-04-28T13:35:58.333Z,58.90
2023-04-28T13:38:00.178Z,59.10
2023-04-28T13:40:01.956Z,58.90
2023-04-28T13:42:03.779Z,59.00
2023-04-28T13:44:05.721Z,59.30
2023-04-28T13:46:07.726Z,59.20
2023-04-28T13:48:09.721Z,59.10
2023-04-28T13:50:11.604Z,58.90
2023-04-28T13:52:13.792Z,59.00
2023-04-28T13:54:15.623Z,58.90
2023-04-28T13:56:17.429Z,59.20
2023-04-28T13:58:19.524Z,59.00
2023-04-28T14:00:21.412Z,59.00
2023-04-28T14:02:23.315Z,59.40
2023-04-28T14:04:25.526Z,59.30
2023-04-28T14:06:27.599Z,59.50
2023-04-28T14:08:29.449Z,59.50
2023-04-28T14:10:31.175Z,59.70
2023-04-28T14:12:32.950Z,59.70
2023-04-28T14:14:35.528Z,59.60
2023-04-28T14:16:38.246Z,60.60
2023-04-28T14:18:40.080Z,60.60
2023-04-28T14:20:41.942Z,60.60
2023-04-28T14:22:43.878Z,60.60
2023-04-28T14:24:45.920Z,60.50
2023-04-28T14:26:47.856Z,60.30
2023-04-28T14:28:49.701Z,60.40
2023-04-28T14:30:53.136Z,60.90
2023-04-28T14:32:55.099Z,61.30
2023-04-28T14:34:56.910Z,61.40
2023-04-28T14:36:58.730Z,62.10
2023-04-28T14:39:00.550Z,61.70
2023-04-28T14:41:02.428Z,61.50
2023-04-28T14:43:04.257Z,61.40
2023-04-28T14:45:07.136Z,62.30
2023-04-28T14:47:08.933Z,62.50
2023-04-28T14:49:11.003Z,61.80
2023-04-28T14:51:13.221Z,62.30
2023-04-28T14:53:15.122Z,62.30
2023-04-28T14:55:16.902Z,62.40
2023-04-28T14:57:18.719Z,61.90
2023-04-28T14:59:20.517Z,61.70
2023-04-28T15:01:22.378Z,61.80
2023-04-28T15:03:24.275Z,61.50
2023-04-28T15:05:26.186Z,61.80
2023-04-28T15:07:27.964Z,62.20
2023-04-28T15:09:29.818Z,62.50
2023-04-28T15:11:32.090Z,62.70
2023-04-28T15:13:34.090Z,63.00
2023-04-28T15:15:35.857Z,62.80
2023-04-28T15:17:37.780Z,62.90
2023-04-28T15:19:39.551Z,62.90
2023-04-28T15:21:41.477Z,62.80
2023-04-28T15:23:43.207Z,62.30
2023-04-28T15:25:44.998Z,62.30
2023-04-28T15:27:46.732Z,62.50
2023-04-28T15:29:48.510Z,62.60
2023-04-28T15:31:50.286Z,62.50
2023-04-28T15:33:52.490Z,62.70
2023-04-28T15:35:54.235Z,63.10
2023-04-28T15:37:56.036Z,62.90
2023-04-28T15:39:57.767Z,62.70
2023-04-28T15:41:59.585Z,62.70
2023-04-28T15:44:01.417Z,62.40
2023-04-28T15:46:04.252Z,62.50
2023-04-28T15:48:06.506Z,62.40
2023-04-28T15:50:09.211Z,62.10
2023-04-28T15:52:11.004Z,62.10
2023-04-28T15:54:12.816Z,62.00
2023-04-28T15:56:14.539Z,61.70
2023-04-28T15:58:16.325Z,61.80
2023-04-28T16:00:18.293Z,61.90
2023-04-28T16:02:21.452Z,61.70
2023-04-28T16:04:23.245Z,61.60
2023-04-28T16:06:25.177Z,61.40
2023-04-28T16:08:27.039Z,61.60
2023-04-28T16:10:28.826Z,61.60
2023-04-28T16:12:30.735Z,61.40
2023-04-28T16:16:34.707Z,62.00
2023-04-28T16:18:36.644Z,61.90
2023-04-28T16:20:38.559Z,62.30
2023-04-28T16:22:41.137Z,62.70
2023-04-28T16:24:42.894Z,62.80
2023-04-28T16:26:44.678Z,62.70
2023-04-28T16:28:46.379Z,62.60
2023-04-28T16:30:48.200Z,62.60
2023-04-28T16:32:49.939Z,62.70
2023-04-28T16:34:52.038Z,62.90
2023-04-28T16:36:54.111Z,62.90
2023-04-28T16:38:55.873Z,63.30
2023-04-28T16:40:57.599Z,63.30
2023-04-28T16:42:59.390Z,63.20
2023-04-28T16:45:01.118Z,63.10
2023-04-28T16:47:03.320Z,63.00
2023-04-28T16:49:05.289Z,63.10
2023-04-28T16:51:09.538Z,63.00
2023-04-28T16:53:11.254Z,63.10
2023-04-28T16:55:13.121Z,63.30
2023-04-28T16:57:14.861Z,62.80
2023-04-28T16:59:16.622Z,63.20
2023-04-28T17:01:18.446Z,62.90
2023-04-28T17:03:20.488Z,62.90
2023-04-28T17:05:22.245Z,63.00
2023-04-28T17:07:25.609Z,63.50
2023-04-28T17:09:27.610Z,63.30
2023-04-28T17:11:29.448Z,63.00
2023-04-28T17:13:31.613Z,63.80
2023-04-28T17:15:33.461Z,63.20
2023-04-28T17:17:35.314Z,62.90
2023-04-28T17:19:40.093Z,63.10
2023-04-28T17:21:41.828Z,63.50
2023-04-28T17:23:43.622Z,63.90
2023-04-28T17:25:45.344Z,64.10
2023-04-28T17:27:47.149Z,63.30
2023-04-28T17:29:49.020Z,63.30
2023-04-28T17:31:50.957Z,63.10
2023-04-28T17:33:53.614Z,62.70
2023-04-28T17:35:55.408Z,63.20
2023-04-28T17:37:57.158Z,63.20
2023-04-28T17:39:59.057Z,63.10
2023-04-28T17:42:00.835Z,63.00
2023-04-28T17:44:02.614Z,63.20
2023-04-28T17:46:04.400Z,63.80
2023-04-28T17:48:06.367Z,63.10
2023-04-28T17:50:08.500Z,63.10
2023-04-28T17:52:10.319Z,63.00
2023-04-28T17:54:12.024Z,62.80
2023-04-28T17:56:13.938Z,62.70
2023-04-28T17:58:15.705Z,62.70
2023-04-28T18:00:17.728Z,62.60
2023-04-28T18:02:19.633Z,62.60
2023-04-28T18:04:21.752Z,62.60
2023-04-28T18:06:23.525Z,62.50
2023-04-28T18:08:25.299Z,62.40
2023-04-28T18:10:27.023Z,62.30
2023-04-28T18:12:28.818Z,62.20
2023-04-28T18:14:31.183Z,62.20
2023-04-28T18:16:33.004Z,62.10
2023-04-28T18:18:35.637Z,62.00
2023-04-28T18:20:37.505Z,62.00
2023-04-28T18:22:39.258Z,62.00
2023-04-28T18:24:41.044Z,61.80
2023-04-28T18:26:42.791Z,61.70
2023-04-28T18:28:47.244Z,61.70
2023-04-28T18:30:49.073Z,61.60
2023-04-28T18:32:50.966Z,61.70
2023-04-28T18:34:52.773Z,61.70
2023-04-28T18:36:54.637Z,61.50
2023-04-28T18:38:56.414Z,61.30
2023-04-28T18:40:58.247Z,61.40
2023-04-28T18:43:00.214Z,61.30
2023-04-28T18:45:01.996Z,61.20
2023-04-28T18:47:03.737Z,61.20
2023-04-28T18:49:05.953Z,61.20
2023-04-28T18:51:07.755Z,61.20
2023-04-28T18:53:10.537Z,61.20
2023-04-28T18:55:12.273Z,61.10
2023-04-28T18:57:14.098Z,60.90
2023-04-28T18:59:15.836Z,60.80
2023-04-28T19:01:17.695Z,60.80
2023-04-28T19:03:20.536Z,60.90
2023-04-28T19:05:22.624Z,60.80
2023-04-28T19:07:24.405Z,60.80
2023-04-28T19:09:26.164Z,60.70
2023-04-28T19:11:27.878Z,60.60
2023-04-28T19:13:29.728Z,60.60
2023-04-28T19:15:31.494Z,60.50
2023-04-28T19:17:33.319Z,60.60
2023-04-28T19:19:35.062Z,60.60
2023-04-28T19:21:40.555Z,60.60
2023-04-28T19:23:42.290Z,60.50
2023-04-28T19:25:44.110Z,60.40
2023-04-28T19:27:45.932Z,60.40
2023-04-28T19:29:47.852Z,60.20
2023-04-28T19:31:49.670Z,60.10
2023-04-28T19:33:51.475Z,60.00
2023-04-28T19:35:53.515Z,59.90
2023-04-28T19:37:55.287Z,59.90
2023-04-28T19:39:57.047Z,59.80
2023-04-28T19:41:58.819Z,59.80
2023-04-28T19:44:00.539Z,59.80
2023-04-28T19:46:02.386Z,59.80
2023-04-28T19:48:04.559Z,59.80
2023-04-28T19:50:07.221Z,59.90
2023-04-28T19:52:08.990Z,59.80
2023-04-28T19:54:10.754Z,59.70
2023-04-28T19:56:12.477Z,59.60
2023-04-28T19:58:14.342Z,59.70
2023-04-28T20:00:16.294Z,59.70
2023-04-28T20:02:18.327Z,59.70
2023-04-28T20:04:20.621Z,59.60
2023-04-28T20:06:22.513Z,59.60
2023-04-28T20:08:24.291Z,59.60
2023-04-28T20:10:26.117Z,59.50
2023-04-28T20:12:27.855Z,59.50
2023-04-28T20:14:29.898Z,59.50
2023-04-28T20:16:31.888Z,59.40
2023-04-28T20:18:34.873Z,59.40
2023-04-28T20:20:36.627Z,59.60
2023-04-28T20:22:38.440Z,59.40
2023-04-28T20:24:40.161Z,59.50
2023-04-28T20:26:42.134Z,59.60
2023-04-28T20:28:45.104Z,59.40
2023-04-28T20:30:46.935Z,59.50
2023-04-28T20:32:48.836Z,59.40
2023-04-28T20:34:50.732Z,59.40
2023-04-28T20:36:52.715Z,59.50
2023-04-28T20:38:54.501Z,59.30
2023-04-28T20:40:56.306Z,59.30
2023-04-28T20:42:58.078Z,59.40
2023-04-28T20:44:59.819Z,59.40
2023-04-28T20:47:01.689Z,59.30
2023-04-28T20:49:03.524Z,59.30
2023-04-28T20:51:05.656Z,59.30
2023-04-28T20:53:07.395Z,59.50
2023-04-28T20:55:10.126Z,59.30
2023-04-28T20:57:11.873Z,59.30
2023-04-28T20:59:13.696Z,59.30
2023-04-28T21:01:15.466Z,59.20
2023-04-28T21:03:17.417Z,59.20
2023-04-28T21:05:19.269Z,59.20
2023-04-28T21:07:21.047Z,59.30
2023-04-28T21:09:22.849Z,59.30
2023-04-28T21:11:24.647Z,59.20
2023-04-28T21:13:26.360Z,59.20
2023-04-28T21:15:28.171Z,59.20
2023-04-28T21:17:29.957Z,59.20
2023-04-28T21:19:31.955Z,59.20
2023-04-28T21:21:33.652Z,59.30
2023-04-28T21:23:35.472Z,59.30
2023-04-28T21:25:37.170Z,59.20
2023-04-28T21:27:39.128Z,59.30
2023-04-28T21:29:40.910Z,59.30
2023-04-28T21:31:42.758Z,59.10
2023-04-28T21:33:44.504Z,59.10
2023-04-28T21:35:46.317Z,59.20
2023-04-28T21:37:48.071Z,59.10
2023-04-28T21:39:50.020Z,59.20
2023-04-28T21:41:51.899Z,59.10
2023-04-28T21:43:53.689Z,59.10
2023-04-28T21:45:55.476Z,59.20
2023-04-28T21:47:57.394Z,59.10
2023-04-28T21:49:59.248Z,59.00
2023-04-28T21:52:01.055Z,59.10
2023-04-28T21:54:02.842Z,59.20
2023-04-28T21:56:04.761Z,59.00
2023-04-28T21:58:06.558Z,59.10
2023-04-28T22:00:08.739Z,59.10
2023-04-28T22:02:14.919Z,58.90
2023-04-28T22:04:17.295Z,59.00
2023-04-28T22:06:19.870Z,59.10
2023-04-28T22:08:21.725Z,59.00
2023-04-28T22:10:23.446Z,59.10
2023-04-28T22:12:25.259Z,59.10
2023-04-28T22:14:40.433Z,59.10
2023-04-28T22:16:43.293Z,59.10
2023-04-28T22:18:45.042Z,59.10
2023-04-28T22:20:46.889Z,58.90
2023-04-28T22:22:48.654Z,59.10
2023-04-28T22:24:50.511Z,59.00
2023-04-28T22:26:52.253Z,59.00
2023-04-28T22:28:54.066Z,59.60
2023-04-28T22:30:55.858Z,59.00
2023-04-28T22:32:57.686Z,59.00
2023-04-28T22:34:59.494Z,58.90
2023-04-28T22:37:01.347Z,59.00
2023-04-28T22:39:03.954Z,58.90
2023-04-28T22:41:05.777Z,59.00
2023-04-28T22:43:07.505Z,59.00
2023-04-28T22:45:09.621Z,59.00
2023-04-28T22:47:11.368Z,59.10
2023-04-28T22:49:13.249Z,58.90
2023-04-28T22:51:14.951Z,59.00
2023-04-28T22:53:16.774Z,58.90
2023-04-28T22:55:18.596Z,59.00
2023-04-28T22:57:20.380Z,59.00
2023-04-28T22:59:22.236Z,58.90
2023-04-28T23:01:24.173Z,59.00
2023-04-28T23:03:26.057Z,59.00
2023-04-28T23:05:27.978Z,59.00
2023-04-28T23:07:29.815Z,58.90
2023-04-28T23:09:31.584Z,58.90
2023-04-28T23:11:33.368Z,58.90
2023-04-28T23:13:35.230Z,58.90
2023-04-28T23:15:36.954Z,59.00
2023-04-28T23:17:38.767Z,58.90
2023-04-28T23:19:40.487Z,58.90
2023-04-28T23:21:42.253Z,59.00
2023-04-28T23:23:44.000Z,58.90
2023-04-28T23:25:45.834Z,58.90
2023-04-28T23:27:47.558Z,58.80
2023-04-28T23:29:49.590Z,58.80
2023-04-28T23:31:51.526Z,59.40
2023-04-28T23:33:53.304Z,58.80
2023-04-28T23:35:55.078Z,58.80
2023-04-28T23:37:56.879Z,58.80
2023-04-28T23:39:58.620Z,58.70
2023-04-28T23:42:00.442Z,58.80
2023-04-28T23:44:02.169Z,58.80
2023-04-28T23:46:04.011Z,58.80
2023-04-28T23:48:06.034Z,58.80
2023-04-28T23:50:08.002Z,58.70
2023-04-28T23:52:09.803Z,58.70
2023-04-28T23:54:11.656Z,58.70
2023-04-28T23:56:13.437Z,58.70
2023-04-28T23:58:15.351Z,58.70
